sensor_id;sensor_type;location;lat;lon;timestamp;pressure;altitude;pressure_sealevel;temperature;humidity
79075;BME280;68476;42.710;23.388;2023-05-01T00:01:19;95595.94;;;7.16;93.28
79075;BME280;68476;42.710;23.388;2023-05-01T00:03:44;95591.56;;;7.08;93.18
79075;BME280;68476;42.710;23.388;2023-05-01T00:06:09;95599.47;;;7.17;94.14
79075;BME280;68476;42.710;23.388;2023-05-01T00:08:35;95608.63;;;7.09;92.84
79075;BME280;68476;42.710;23.388;2023-05-01T00:11:04;95611.97;;;6.98;92.31
79075;BME280;68476;42.710;23.388;2023-05-01T00:13:30;95599.44;;;6.97;93.39
79075;BME280;68476;42.710;23.388;2023-05-01T00:15:55;95602.16;;;6.97;93.85
79075;BME280;68476;42.710;23.388;2023-05-01T00:18:21;95607.75;;;6.82;94.00
79075;BME280;68476;42.710;23.388;2023-05-01T00:20:47;95603.53;;;6.66;93.88
79075;BME280;68476;42.710;23.388;2023-05-01T00:23:12;95613.38;;;6.73;92.79
79075;BME280;68476;42.710;23.388;2023-05-01T00:25:38;95611.88;;;6.64;93.11
79075;BME280;68476;42.710;23.388;2023-05-01T00:28:04;95612.69;;;6.58;93.66
79075;BME280;68476;42.710;23.388;2023-05-01T00:30:33;95602.72;;;6.72;94.14
79075;BME280;68476;42.710;23.388;2023-05-01T00:32:58;95612.72;;;6.71;94.11
79075;BME280;68476;42.710;23.388;2023-05-01T00:35:24;95619.81;;;6.72;93.95
79075;BME280;68476;42.710;23.388;2023-05-01T00:37:50;95624.16;;;6.60;93.45
79075;BME280;68476;42.710;23.388;2023-05-01T00:40:15;95619.34;;;6.55;94.72
79075;BME280;68476;42.710;23.388;2023-05-01T00:42:41;95630.56;;;6.52;94.82
79075;BME280;68476;42.710;23.388;2023-05-01T00:45:07;95631.41;;;6.59;94.55
79075;BME280;68476;42.710;23.388;2023-05-01T00:47:37;95614.56;;;6.57;94.25
79075;BME280;68476;42.710;23.388;2023-05-01T00:50:03;95617.09;;;6.66;94.15
79075;BME280;68476;42.710;23.388;2023-05-01T00:52:30;95621.44;;;6.60;93.23
79075;BME280;68476;42.710;23.388;2023-05-01T00:54:56;95621.84;;;6.57;94.09
79075;BME280;68476;42.710;23.388;2023-05-01T00:57:22;95622.31;;;6.74;95.29
79075;BME280;68476;42.710;23.388;2023-05-01T00:59:47;95631.03;;;6.62;94.63
79075;BME280;68476;42.710;23.388;2023-05-01T01:02:13;95635.56;;;6.48;94.63
79075;BME280;68476;42.710;23.388;2023-05-01T01:04:44;95643.41;;;6.37;93.46
79075;BME280;68476;42.710;23.388;2023-05-01T01:12:31;95646.59;;;6.12;94.90
79075;BME280;68476;42.710;23.388;2023-05-01T01:17:58;95645.22;;;5.94;96.09
79075;BME280;68476;42.710;23.388;2023-05-01T01:29:25;95651.03;;;5.91;95.51
79075;BME280;68476;42.710;23.388;2023-05-01T01:34:49;95648.66;;;6.03;95.51
79075;BME280;68476;42.710;23.388;2023-05-01T01:40:04;95650.38;;;6.17;95.33
79075;BME280;68476;42.710;23.388;2023-05-01T01:42:36;95657.97;;;6.29;96.08
79075;BME280;68476;42.710;23.388;2023-05-01T01:45:06;95657.00;;;6.50;96.24
79075;BME280;68476;42.710;23.388;2023-05-01T01:47:35;95650.50;;;6.38;95.72
79075;BME280;68476;42.710;23.388;2023-05-01T01:50:05;95648.72;;;6.16;94.70
79075;BME280;68476;42.710;23.388;2023-05-01T01:52:32;95647.41;;;6.06;94.98
79075;BME280;68476;42.710;23.388;2023-05-01T01:55:02;95641.19;;;5.83;94.72
79075;BME280;68476;42.710;23.388;2023-05-01T01:57:31;95646.97;;;5.74;94.81
79075;BME280;68476;42.710;23.388;2023-05-01T01:59:57;95651.56;;;5.80;95.16
79075;BME280;68476;42.710;23.388;2023-05-01T02:02:23;95654.03;;;5.75;95.47
79075;BME280;68476;42.710;23.388;2023-05-01T02:04:51;95651.44;;;5.38;95.23
79075;BME280;68476;42.710;23.388;2023-05-01T02:07:18;95648.94;;;5.36;95.89
79075;BME280;68476;42.710;23.388;2023-05-01T02:09:45;95654.16;;;5.16;95.94
79075;BME280;68476;42.710;23.388;2023-05-01T02:12:11;95646.50;;;4.98;95.98
79075;BME280;68476;42.710;23.388;2023-05-01T02:14:39;95653.69;;;4.91;96.19
79075;BME280;68476;42.710;23.388;2023-05-01T02:17:05;95657.16;;;4.85;96.36
79075;BME280;68476;42.710;23.388;2023-05-01T02:19:33;95656.19;;;4.92;96.34
79075;BME280;68476;42.710;23.388;2023-05-01T02:21:59;95655.38;;;5.14;97.17
79075;BME280;68476;42.710;23.388;2023-05-01T02:24:27;95651.75;;;5.06;97.13
79075;BME280;68476;42.710;23.388;2023-05-01T02:27:11;95650.28;;;5.04;96.78
79075;BME280;68476;42.710;23.388;2023-05-01T02:29:38;95653.63;;;5.06;96.65
79075;BME280;68476;42.710;23.388;2023-05-01T02:32:04;95656.41;;;4.91;96.42
79075;BME280;68476;42.710;23.388;2023-05-01T02:34:33;95647.53;;;4.97;96.39
79075;BME280;68476;42.710;23.388;2023-05-01T02:36:58;95641.53;;;5.02;96.14
79075;BME280;68476;42.710;23.388;2023-05-01T02:39:24;95647.41;;;5.05;95.27
79075;BME280;68476;42.710;23.388;2023-05-01T02:41:51;95647.22;;;5.07;95.43
79075;BME280;68476;42.710;23.388;2023-05-01T02:44:19;95648.31;;;5.13;96.28
79075;BME280;68476;42.710;23.388;2023-05-01T02:46:45;95648.31;;;5.13;96.80
79075;BME280;68476;42.710;23.388;2023-05-01T02:49:13;95652.81;;;5.27;97.33
79075;BME280;68476;42.710;23.388;2023-05-01T02:51:41;95646.25;;;5.15;96.52
79075;BME280;68476;42.710;23.388;2023-05-01T02:54:07;95655.31;;;5.07;96.54
79075;BME280;68476;42.710;23.388;2023-05-01T02:56:33;95652.91;;;4.97;96.12
79075;BME280;68476;42.710;23.388;2023-05-01T02:58:59;95658.00;;;4.85;95.99
79075;BME280;68476;42.710;23.388;2023-05-01T03:01:25;95657.41;;;4.68;96.15
79075;BME280;68476;42.710;23.388;2023-05-01T03:03:51;95660.25;;;4.82;97.52
79075;BME280;68476;42.710;23.388;2023-05-01T03:06:17;95670.13;;;4.74;96.73
79075;BME280;68476;42.710;23.388;2023-05-01T03:08:43;95671.59;;;4.77;95.65
79075;BME280;68476;42.710;23.388;2023-05-01T03:11:09;95663.47;;;4.92;97.70
79075;BME280;68476;42.710;23.388;2023-05-01T03:13:34;95672.69;;;4.83;97.07
79075;BME280;68476;42.710;23.388;2023-05-01T03:16:00;95668.72;;;4.78;96.76
79075;BME280;68476;42.710;23.388;2023-05-01T03:18:26;95671.16;;;4.73;95.87
79075;BME280;68476;42.710;23.388;2023-05-01T03:20:55;95669.47;;;4.72;95.53
79075;BME280;68476;42.710;23.388;2023-05-01T03:23:24;95666.75;;;4.87;96.71
79075;BME280;68476;42.710;23.388;2023-05-01T03:25:50;95680.56;;;4.77;95.85
79075;BME280;68476;42.710;23.388;2023-05-01T03:28:16;95686.44;;;4.66;96.23
79075;BME280;68476;42.710;23.388;2023-05-01T03:30:42;95691.84;;;4.66;97.04
79075;BME280;68476;42.710;23.388;2023-05-01T03:33:08;95682.72;;;4.67;95.96
79075;BME280;68476;42.710;23.388;2023-05-01T03:35:33;95687.75;;;4.70;95.67
79075;BME280;68476;42.710;23.388;2023-05-01T03:37:58;95686.91;;;4.70;95.50
79075;BME280;68476;42.710;23.388;2023-05-01T03:40:24;95687.69;;;4.34;95.12
79075;BME280;68476;42.710;23.388;2023-05-01T03:42:49;95680.25;;;4.21;95.33
79075;BME280;68476;42.710;23.388;2023-05-01T03:45:15;95686.09;;;4.39;96.33
79075;BME280;68476;42.710;23.388;2023-05-01T03:47:40;95696.31;;;4.44;96.06
79075;BME280;68476;42.710;23.388;2023-05-01T03:50:06;95693.28;;;4.32;95.19
79075;BME280;68476;42.710;23.388;2023-05-01T03:52:32;95693.63;;;4.29;95.01
79075;BME280;68476;42.710;23.388;2023-05-01T03:54:58;95693.72;;;4.51;96.79
79075;BME280;68476;42.710;23.388;2023-05-01T03:57:23;95695.50;;;4.43;94.85
79075;BME280;68476;42.710;23.388;2023-05-01T03:59:49;95699.41;;;4.56;94.67
79075;BME280;68476;42.710;23.388;2023-05-01T04:02:14;95703.28;;;4.53;94.38
79075;BME280;68476;42.710;23.388;2023-05-01T04:04:40;95700.38;;;4.70;94.81
79075;BME280;68476;42.710;23.388;2023-05-01T04:07:05;95697.84;;;4.83;94.67
79075;BME280;68476;42.710;23.388;2023-05-01T04:09:31;95696.34;;;4.96;94.64
79075;BME280;68476;42.710;23.388;2023-05-01T04:11:56;95701.47;;;5.12;94.01
79075;BME280;68476;42.710;23.388;2023-05-01T04:14:22;95706.66;;;5.29;93.60
79075;BME280;68476;42.710;23.388;2023-05-01T04:16:48;95707.09;;;5.32;93.10
79075;BME280;68476;42.710;23.388;2023-05-01T04:19:14;95707.28;;;5.09;91.40
79075;BME280;68476;42.710;23.388;2023-05-01T04:21:40;95714.03;;;4.46;93.66
79075;BME280;68476;42.710;23.388;2023-05-01T04:24:05;95721.78;;;4.71;94.13
79075;BME280;68476;42.710;23.388;2023-05-01T04:26:30;95717.59;;;4.84;93.78
79075;BME280;68476;42.710;23.388;2023-05-01T04:28:56;95711.31;;;4.98;92.74
79075;BME280;68476;42.710;23.388;2023-05-01T04:31:21;95711.53;;;5.18;92.47
79075;BME280;68476;42.710;23.388;2023-05-01T04:33:46;95711.63;;;5.25;91.78
79075;BME280;68476;42.710;23.388;2023-05-01T04:36:12;95712.91;;;5.29;92.38
79075;BME280;68476;42.710;23.388;2023-05-01T04:38:37;95722.03;;;5.50;92.03
79075;BME280;68476;42.710;23.388;2023-05-01T04:41:04;95716.13;;;5.61;91.98
79075;BME280;68476;42.710;23.388;2023-05-01T04:43:30;95727.88;;;5.75;92.34
79075;BME280;68476;42.710;23.388;2023-05-01T04:45:55;95722.16;;;5.85;92.26
79075;BME280;68476;42.710;23.388;2023-05-01T04:48:20;95726.47;;;6.01;91.00
79075;BME280;68476;42.710;23.388;2023-05-01T04:50:46;95722.66;;;6.24;90.60
79075;BME280;68476;42.710;23.388;2023-05-01T04:53:11;95735.47;;;6.43;90.71
79075;BME280;68476;42.710;23.388;2023-05-01T04:55:36;95736.41;;;6.57;90.52
79075;BME280;68476;42.710;23.388;2023-05-01T04:58:02;95738.59;;;6.82;90.36
79075;BME280;68476;42.710;23.388;2023-05-01T05:00:30;95733.19;;;6.75;90.59
79075;BME280;68476;42.710;23.388;2023-05-01T05:02:56;95734.13;;;7.03;90.46
79075;BME280;68476;42.710;23.388;2023-05-01T05:05:21;95731.09;;;7.33;89.34
79075;BME280;68476;42.710;23.388;2023-05-01T05:07:47;95744.22;;;7.36;89.67
79075;BME280;68476;42.710;23.388;2023-05-01T05:10:13;95742.19;;;7.51;89.99
79075;BME280;68476;42.710;23.388;2023-05-01T05:12:38;95744.31;;;7.83;88.36
79075;BME280;68476;42.710;23.388;2023-05-01T05:15:04;95739.13;;;8.01;87.75
79075;BME280;68476;42.710;23.388;2023-05-01T05:17:29;95745.59;;;8.07;87.38
79075;BME280;68476;42.710;23.388;2023-05-01T05:19:55;95743.28;;;8.24;86.62
79075;BME280;68476;42.710;23.388;2023-05-01T05:22:20;95733.22;;;8.31;85.95
79075;BME280;68476;42.710;23.388;2023-05-01T05:24:46;95743.06;;;8.53;84.79
79075;BME280;68476;42.710;23.388;2023-05-01T05:27:11;95745.13;;;8.64;84.65
79075;BME280;68476;42.710;23.388;2023-05-01T05:29:36;95744.72;;;8.60;83.78
79075;BME280;68476;42.710;23.388;2023-05-01T05:32:02;95742.38;;;8.77;83.93
79075;BME280;68476;42.710;23.388;2023-05-01T05:34:27;95747.56;;;8.92;83.24
79075;BME280;68476;42.710;23.388;2023-05-01T05:36:53;95747.13;;;9.02;83.46
79075;BME280;68476;42.710;23.388;2023-05-01T05:39:20;95743.03;;;9.32;82.29
79075;BME280;68476;42.710;23.388;2023-05-01T05:41:46;95746.19;;;9.22;83.31
79075;BME280;68476;42.710;23.388;2023-05-01T05:44:13;95751.56;;;9.35;82.79
79075;BME280;68476;42.710;23.388;2023-05-01T05:46:38;95750.94;;;9.33;82.82
79075;BME280;68476;42.710;23.388;2023-05-01T05:49:04;95747.28;;;9.53;82.63
79075;BME280;68476;42.710;23.388;2023-05-01T05:51:29;95752.53;;;9.86;81.41
79075;BME280;68476;42.710;23.388;2023-05-01T05:53:55;95753.56;;;9.85;79.41
79075;BME280;68476;42.710;23.388;2023-05-01T05:56:21;95761.06;;;9.90;80.11
79075;BME280;68476;42.710;23.388;2023-05-01T05:58:47;95763.94;;;10.27;78.31
79075;BME280;68476;42.710;23.388;2023-05-01T06:01:12;95746.38;;;10.23;77.50
79075;BME280;68476;42.710;23.388;2023-05-01T06:03:39;95764.63;;;10.23;79.51
79075;BME280;68476;42.710;23.388;2023-05-01T06:06:04;95759.44;;;10.65;76.26
79075;BME280;68476;42.710;23.388;2023-05-01T06:08:30;95775.22;;;10.82;75.96
79075;BME280;68476;42.710;23.388;2023-05-01T06:10:55;95775.16;;;10.88;75.22
79075;BME280;68476;42.710;23.388;2023-05-01T06:13:23;95765.84;;;10.96;74.42
79075;BME280;68476;42.710;23.388;2023-05-01T06:15:48;95763.66;;;11.05;77.46
79075;BME280;68476;42.710;23.388;2023-05-01T06:18:14;95764.25;;;10.88;76.81
79075;BME280;68476;42.710;23.388;2023-05-01T06:20:40;95773.59;;;10.99;77.84
79075;BME280;68476;42.710;23.388;2023-05-01T06:23:06;95766.00;;;11.20;76.82
79075;BME280;68476;42.710;23.388;2023-05-01T06:25:33;95770.81;;;11.36;76.12
79075;BME280;68476;42.710;23.388;2023-05-01T06:27:59;95768.53;;;11.52;75.45
79075;BME280;68476;42.710;23.388;2023-05-01T06:30:24;95764.47;;;11.73;74.38
79075;BME280;68476;42.710;23.388;2023-05-01T06:32:50;95759.19;;;11.60;74.05
79075;BME280;68476;42.710;23.388;2023-05-01T06:35:15;95765.03;;;11.94;73.21
79075;BME280;68476;42.710;23.388;2023-05-01T06:37:41;95764.22;;;11.93;72.92
79075;BME280;68476;42.710;23.388;2023-05-01T06:40:07;95763.03;;;11.70;72.92
79075;BME280;68476;42.710;23.388;2023-05-01T06:42:34;95767.94;;;12.11;72.60
79075;BME280;68476;42.710;23.388;2023-05-01T06:45:00;95766.53;;;12.20;72.36
79075;BME280;68476;42.710;23.388;2023-05-01T06:47:25;95764.56;;;11.97;72.23
79075;BME280;68476;42.710;23.388;2023-05-01T06:49:50;95778.31;;;11.90;72.71
79075;BME280;68476;42.710;23.388;2023-05-01T06:52:16;95782.13;;;12.20;72.42
79075;BME280;68476;42.710;23.388;2023-05-01T06:54:41;95769.09;;;12.57;72.15
79075;BME280;68476;42.710;23.388;2023-05-01T06:57:06;95766.25;;;12.64;71.83
79075;BME280;68476;42.710;23.388;2023-05-01T06:59:32;95756.03;;;12.83;71.86
79075;BME280;68476;42.710;23.388;2023-05-01T07:01:57;95769.91;;;12.34;72.81
79075;BME280;68476;42.710;23.388;2023-05-01T07:04:22;95762.91;;;12.86;71.19
79075;BME280;68476;42.710;23.388;2023-05-01T07:06:48;95766.09;;;13.06;69.81
79075;BME280;68476;42.710;23.388;2023-05-01T07:09:13;95774.28;;;13.18;69.60
79075;BME280;68476;42.710;23.388;2023-05-01T07:11:39;95770.03;;;13.10;69.64
79075;BME280;68476;42.710;23.388;2023-05-01T07:14:06;95764.81;;;13.09;70.03
79075;BME280;68476;42.710;23.388;2023-05-01T07:16:32;95773.81;;;13.09;70.12
79075;BME280;68476;42.710;23.388;2023-05-01T07:18:57;95773.69;;;13.16;70.19
79075;BME280;68476;42.710;23.388;2023-05-01T07:21:22;95766.91;;;13.31;69.23
79075;BME280;68476;42.710;23.388;2023-05-01T07:23:48;95773.16;;;13.55;69.28
79075;BME280;68476;42.710;23.388;2023-05-01T07:26:13;95775.41;;;13.58;69.23
79075;BME280;68476;42.710;23.388;2023-05-01T07:28:38;95769.41;;;14.02;68.12
79075;BME280;68476;42.710;23.388;2023-05-01T07:31:05;95768.38;;;14.54;66.07
79075;BME280;68476;42.710;23.388;2023-05-01T07:33:31;95766.88;;;14.46;65.77
79075;BME280;68476;42.710;23.388;2023-05-01T07:35:56;95759.91;;;14.73;64.69
79075;BME280;68476;42.710;23.388;2023-05-01T07:38:22;95773.16;;;14.13;66.07
79075;BME280;68476;42.710;23.388;2023-05-01T07:40:51;95766.78;;;14.41;64.80
79075;BME280;68476;42.710;23.388;2023-05-01T07:43:16;95766.47;;;14.55;64.33
79075;BME280;68476;42.710;23.388;2023-05-01T07:45:53;95772.03;;;14.60;64.16
79075;BME280;68476;42.710;23.388;2023-05-01T07:48:19;95768.03;;;15.02;64.28
79075;BME280;68476;42.710;23.388;2023-05-01T07:50:44;95762.97;;;15.33;62.18
79075;BME280;68476;42.710;23.388;2023-05-01T07:53:10;95763.28;;;15.36;62.76
79075;BME280;68476;42.710;23.388;2023-05-01T07:55:35;95760.66;;;15.47;63.35
79075;BME280;68476;42.710;23.388;2023-05-01T07:58:01;95762.59;;;15.46;62.54
79075;BME280;68476;42.710;23.388;2023-05-01T08:00:28;95762.31;;;15.48;62.39
79075;BME280;68476;42.710;23.388;2023-05-01T08:02:53;95756.22;;;15.63;61.17
79075;BME280;68476;42.710;23.388;2023-05-01T08:05:18;95765.16;;;15.53;61.66
79075;BME280;68476;42.710;23.388;2023-05-01T08:07:44;95759.91;;;15.96;60.30
79075;BME280;68476;42.710;23.388;2023-05-01T08:10:09;95764.81;;;15.05;60.92
79075;BME280;68476;42.710;23.388;2023-05-01T08:12:34;95765.25;;;15.19;60.01
79075;BME280;68476;42.710;23.388;2023-05-01T08:15:00;95760.53;;;15.14;58.87
79075;BME280;68476;42.710;23.388;2023-05-01T08:17:25;95759.44;;;15.82;57.35
79075;BME280;68476;42.710;23.388;2023-05-01T08:19:51;95755.28;;;15.79;54.95
79075;BME280;68476;42.710;23.388;2023-05-01T08:22:20;95756.44;;;15.61;56.86
79075;BME280;68476;42.710;23.388;2023-05-01T08:24:45;95761.47;;;15.86;55.45
79075;BME280;68476;42.710;23.388;2023-05-01T08:27:11;95759.53;;;16.14;53.34
79075;BME280;68476;42.710;23.388;2023-05-01T08:29:36;95761.88;;;16.60;54.31
79075;BME280;68476;42.710;23.388;2023-05-01T08:32:02;95760.50;;;16.58;54.73
79075;BME280;68476;42.710;23.388;2023-05-01T08:34:27;95754.69;;;16.27;55.33
79075;BME280;68476;42.710;23.388;2023-05-01T08:36:52;95755.00;;;16.63;55.10
79075;BME280;68476;42.710;23.388;2023-05-01T08:39:18;95751.75;;;16.66;54.49
79075;BME280;68476;42.710;23.388;2023-05-01T08:41:45;95748.34;;;16.91;53.65
79075;BME280;68476;42.710;23.388;2023-05-01T08:44:13;95745.66;;;17.55;52.20
79075;BME280;68476;42.710;23.388;2023-05-01T08:49:24;95742.34;;;17.48;51.48
79075;BME280;68476;42.710;23.388;2023-05-01T08:51:52;95736.13;;;17.78;50.73
79075;BME280;68476;42.710;23.388;2023-05-01T08:54:21;95742.00;;;17.97;50.75
79075;BME280;68476;42.710;23.388;2023-05-01T08:56:49;95734.84;;;17.38;52.91
79075;BME280;68476;42.710;23.388;2023-05-01T08:59:17;95738.50;;;17.54;51.96
79075;BME280;68476;42.710;23.388;2023-05-01T09:01:45;95739.69;;;17.74;51.65
79075;BME280;68476;42.710;23.388;2023-05-01T09:04:12;95737.59;;;18.01;50.69
79075;BME280;68476;42.710;23.388;2023-05-01T09:06:38;95732.94;;;18.33;47.12
79075;BME280;68476;42.710;23.388;2023-05-01T09:09:04;95731.56;;;18.30;47.20
79075;BME280;68476;42.710;23.388;2023-05-01T09:11:29;95729.38;;;18.22;46.83
79075;BME280;68476;42.710;23.388;2023-05-01T09:13:55;95735.03;;;17.84;46.54
79075;BME280;68476;42.710;23.388;2023-05-01T09:16:21;95729.34;;;18.38;48.42
79075;BME280;68476;42.710;23.388;2023-05-01T09:18:47;95727.16;;;18.76;48.06
79075;BME280;68476;42.710;23.388;2023-05-01T09:21:13;95729.34;;;18.89;48.98
79075;BME280;68476;42.710;23.388;2023-05-01T09:23:38;95726.31;;;18.91;48.12
79075;BME280;68476;42.710;23.388;2023-05-01T09:26:08;95733.72;;;19.21;46.22
79075;BME280;68476;42.710;23.388;2023-05-01T09:28:44;95736.53;;;19.16;44.69
79075;BME280;68476;42.710;23.388;2023-05-01T09:31:21;95734.25;;;19.29;44.86
79075;BME280;68476;42.710;23.388;2023-05-01T09:33:51;95728.72;;;19.34;42.80
79075;BME280;68476;42.710;23.388;2023-05-01T09:36:19;95728.81;;;18.51;42.37
79075;BME280;68476;42.710;23.388;2023-05-01T09:38:45;95729.34;;;18.48;44.22
79075;BME280;68476;42.710;23.388;2023-05-01T09:41:11;95724.38;;;19.12;43.85
79075;BME280;68476;42.710;23.388;2023-05-01T09:43:37;95723.00;;;19.85;43.24
79075;BME280;68476;42.710;23.388;2023-05-01T09:46:05;95726.97;;;19.59;44.22
79075;BME280;68476;42.710;23.388;2023-05-01T09:48:31;95727.63;;;19.40;43.65
79075;BME280;68476;42.710;23.388;2023-05-01T09:50:58;95724.75;;;19.61;41.93
79075;BME280;68476;42.710;23.388;2023-05-01T09:53:37;95713.59;;;19.81;42.24
79075;BME280;68476;42.710;23.388;2023-05-01T09:56:02;95722.81;;;19.61;40.68
79075;BME280;68476;42.710;23.388;2023-05-01T09:58:28;95715.25;;;19.88;41.52
79075;BME280;68476;42.710;23.388;2023-05-01T10:00:53;95716.09;;;19.88;41.68
79075;BME280;68476;42.710;23.388;2023-05-01T10:03:19;95712.97;;;20.00;41.43
79075;BME280;68476;42.710;23.388;2023-05-01T10:05:45;95714.88;;;19.44;42.19
79075;BME280;68476;42.710;23.388;2023-05-01T10:08:11;95709.94;;;20.01;41.62
79075;BME280;68476;42.710;23.388;2023-05-01T10:10:39;95714.50;;;20.22;41.14
79075;BME280;68476;42.710;23.388;2023-05-01T10:13:16;95717.88;;;20.88;39.80
79075;BME280;68476;42.710;23.388;2023-05-01T10:15:43;95700.72;;;21.64;38.44
79075;BME280;68476;42.710;23.388;2023-05-01T10:18:09;95709.97;;;20.71;38.24
79075;BME280;68476;42.710;23.388;2023-05-01T10:20:35;95701.75;;;22.11;36.86
79075;BME280;68476;42.710;23.388;2023-05-01T10:23:01;95692.72;;;25.62;29.96
79075;BME280;68476;42.710;23.388;2023-05-01T10:25:28;95691.31;;;25.91;28.51
79075;BME280;68476;42.710;23.388;2023-05-01T10:27:54;95691.81;;;26.02;27.99
79075;BME280;68476;42.710;23.388;2023-05-01T10:30:21;95687.94;;;26.46;27.87
79075;BME280;68476;42.710;23.388;2023-05-01T10:32:47;95686.00;;;27.77;25.51
79075;BME280;68476;42.710;23.388;2023-05-01T10:35:17;95692.88;;;25.65;25.97
79075;BME280;68476;42.710;23.388;2023-05-01T10:43:17;95684.88;;;23.40;30.47
79075;BME280;68476;42.710;23.388;2023-05-01T10:45:44;95683.38;;;23.01;30.26
79075;BME280;68476;42.710;23.388;2023-05-01T10:48:10;95686.75;;;22.12;34.22
79075;BME280;68476;42.710;23.388;2023-05-01T10:51:08;95688.53;;;21.84;34.58
79075;BME280;68476;42.710;23.388;2023-05-01T10:53:34;95680.75;;;24.30;30.36
79075;BME280;68476;42.710;23.388;2023-05-01T10:56:00;95676.53;;;25.90;28.15
79075;BME280;68476;42.710;23.388;2023-05-01T11:01:41;95676.34;;;25.87;27.09
79075;BME280;68476;42.710;23.388;2023-05-01T11:12:04;95669.34;;;26.68;24.10
79075;BME280;68476;42.710;23.388;2023-05-01T11:20:11;95668.44;;;22.97;29.55
79075;BME280;68476;42.710;23.388;2023-05-01T11:22:39;95668.13;;;21.94;30.34
79075;BME280;68476;42.710;23.388;2023-05-01T11:25:22;95674.56;;;24.19;26.99
79075;BME280;68476;42.710;23.388;2023-05-01T11:27:55;95669.88;;;26.44;23.35
79075;BME280;68476;42.710;23.388;2023-05-01T11:30:21;95670.22;;;27.34;22.81
79075;BME280;68476;42.710;23.388;2023-05-01T11:32:48;95674.63;;;28.12;20.80
79075;BME280;68476;42.710;23.388;2023-05-01T11:35:18;95670.34;;;28.15;21.28
79075;BME280;68476;42.710;23.388;2023-05-01T11:37:44;95670.84;;;27.78;20.77
79075;BME280;68476;42.710;23.388;2023-05-01T11:40:24;95676.31;;;24.97;23.63
79075;BME280;68476;42.710;23.388;2023-05-01T11:42:58;95671.88;;;23.21;26.99
79075;BME280;68476;42.710;23.388;2023-05-01T11:45:24;95665.47;;;23.07;26.29
79075;BME280;68476;42.710;23.388;2023-05-01T11:47:50;95668.06;;;23.73;26.39
79075;BME280;68476;42.710;23.388;2023-05-01T11:50:15;95673.25;;;22.06;29.17
79075;BME280;68476;42.710;23.388;2023-05-01T11:52:45;95668.50;;;22.25;28.79
79075;BME280;68476;42.710;23.388;2023-05-01T11:55:11;95674.03;;;22.77;28.66
79075;BME280;68476;42.710;23.388;2023-05-01T11:57:50;95676.06;;;22.20;30.92
79075;BME280;68476;42.710;23.388;2023-05-01T12:00:25;95677.88;;;21.23;33.85
79075;BME280;68476;42.710;23.388;2023-05-01T12:02:58;95682.22;;;20.07;35.00
79075;BME280;68476;42.710;23.388;2023-05-01T12:05:25;95692.16;;;20.08;35.96
79075;BME280;68476;42.710;23.388;2023-05-01T12:10:31;95677.34;;;23.54;29.99
79075;BME280;68476;42.710;23.388;2023-05-01T12:12:56;95694.59;;;24.81;28.28
79075;BME280;68476;42.710;23.388;2023-05-01T12:15:21;95683.06;;;25.36;27.06
79075;BME280;68476;42.710;23.388;2023-05-01T12:17:47;95689.66;;;21.83;32.12
79075;BME280;68476;42.710;23.388;2023-05-01T12:20:13;95699.47;;;20.68;36.30
79075;BME280;68476;42.710;23.388;2023-05-01T12:22:48;95703.84;;;19.99;36.88
79075;BME280;68476;42.710;23.388;2023-05-01T12:25:14;95705.78;;;20.78;35.69
79075;BME280;68476;42.710;23.388;2023-05-01T12:27:44;95687.16;;;23.38;30.74
79075;BME280;68476;42.710;23.388;2023-05-01T12:30:10;95685.38;;;23.28;30.50
79075;BME280;68476;42.710;23.388;2023-05-01T12:32:36;95690.75;;;24.17;29.04
79075;BME280;68476;42.710;23.388;2023-05-01T12:35:14;95693.50;;;24.08;30.07
79075;BME280;68476;42.710;23.388;2023-05-01T12:37:40;95688.03;;;23.89;29.79
79075;BME280;68476;42.710;23.388;2023-05-01T12:40:12;95683.78;;;24.06;28.43
79075;BME280;68476;42.710;23.388;2023-05-01T12:42:37;95684.31;;;24.67;27.88
79075;BME280;68476;42.710;23.388;2023-05-01T12:45:03;95673.06;;;25.35;26.89
79075;BME280;68476;42.710;23.388;2023-05-01T12:47:35;95685.13;;;24.45;28.01
79075;BME280;68476;42.710;23.388;2023-05-01T12:50:02;95675.97;;;25.21;28.32
79075;BME280;68476;42.710;23.388;2023-05-01T12:52:28;95685.88;;;24.00;28.64
79075;BME280;68476;42.710;23.388;2023-05-01T12:55:04;95679.34;;;23.07;29.21
79075;BME280;68476;42.710;23.388;2023-05-01T12:57:29;95682.91;;;23.41;29.47
79075;BME280;68476;42.710;23.388;2023-05-01T13:00:00;95682.75;;;24.15;28.40
79075;BME280;68476;42.710;23.388;2023-05-01T13:02:31;95683.16;;;24.68;28.44
79075;BME280;68476;42.710;23.388;2023-05-01T13:05:14;95683.56;;;23.51;29.48
79075;BME280;68476;42.710;23.388;2023-05-01T13:07:46;95693.72;;;23.42;29.77
79075;BME280;68476;42.710;23.388;2023-05-01T13:10:12;95691.03;;;23.65;29.58
79075;BME280;68476;42.710;23.388;2023-05-01T13:12:43;95697.88;;;22.98;30.01
79075;BME280;68476;42.710;23.388;2023-05-01T13:15:18;95685.28;;;23.75;28.10
79075;BME280;68476;42.710;23.388;2023-05-01T13:17:43;95699.34;;;23.93;28.03
79075;BME280;68476;42.710;23.388;2023-05-01T13:20:09;95695.25;;;24.04;27.78
79075;BME280;68476;42.710;23.388;2023-05-01T13:22:36;95696.19;;;23.99;27.22
79075;BME280;68476;42.710;23.388;2023-05-01T13:25:18;95690.75;;;23.66;26.28
79075;BME280;68476;42.710;23.388;2023-05-01T13:27:51;95694.66;;;24.30;25.03
79075;BME280;68476;42.710;23.388;2023-05-01T13:30:18;95695.53;;;23.89;26.17
79075;BME280;68476;42.710;23.388;2023-05-01T13:32:46;95701.56;;;23.68;26.71
79075;BME280;68476;42.710;23.388;2023-05-01T13:35:23;95706.91;;;23.78;26.17
79075;BME280;68476;42.710;23.388;2023-05-01T13:37:50;95705.06;;;24.02;26.06
79075;BME280;68476;42.710;23.388;2023-05-01T13:40:17;95711.19;;;24.12;25.83
79075;BME280;68476;42.710;23.388;2023-05-01T13:42:43;95703.78;;;23.94;24.40
79075;BME280;68476;42.710;23.388;2023-05-01T13:45:09;95707.72;;;23.93;24.48